Time;durP1;ratioP1;P1;durP2;ratioP2;P2;SDS_P1;SDS_P2;PMS_P1;PMS_P2;Temp;Humidity;BMP_temperature;BMP_pressure;BME280_temperature;BME280_humidity;BME280_pressure;Samples;Min_cycle;Max_cycle;Signal;HPM_P1;HPM_P2
2023/09/19 00:00:12;;;;;;;4.63;1.98;;;16.40;99.90;;;;;;5062557;28;20627;-71
2023/09/19 00:02:39;;;;;;;2.60;1.80;;;16.30;99.90;;;;;;5081820;22;20443;-72
2023/09/19 00:05:07;;;;;;;3.42;1.70;;;16.30;99.90;;;;;;5060852;28;20549;-72
2023/09/19 00:07:36;;;;;;;3.97;1.77;;;16.30;99.90;;;;;;5077131;28;20458;-72
2023/09/19 00:10:04;;;;;;;4.03;1.95;;;16.30;99.90;;;;;;5072488;28;20958;-72
2023/09/19 00:12:31;;;;;;;3.38;1.77;;;16.30;99.90;;;;;;5072921;28;20431;-72
2023/09/19 00:15:00;;;;;;;4.03;1.83;;;16.20;99.90;;;;;;5075393;28;20774;-72
2023/09/19 00:17:30;;;;;;;4.00;1.80;;;16.20;99.90;;;;;;5082815;28;20429;-71
2023/09/19 00:19:57;;;;;;;3.20;1.50;;;16.20;99.90;;;;;;5076923;28;20430;-72
2023/09/19 00:22:25;;;;;;;3.22;1.70;;;16.20;99.90;;;;;;5075420;28;20453;-70
2023/09/19 00:24:52;;;;;;;3.53;1.70;;;16.10;99.90;;;;;;5069547;28;20423;-73
2023/09/19 00:27:19;;;;;;;5.47;1.90;;;16.20;99.90;;;;;;5072911;28;20918;-71
2023/09/19 00:29:46;;;;;;;6.32;1.90;;;16.20;99.90;;;;;;5081220;28;20409;-72
2023/09/19 00:32:14;;;;;;;3.70;1.70;;;16.20;99.90;;;;;;5080285;28;20431;-72
2023/09/19 00:34:42;;;;;;;4.80;2.00;;;16.10;99.90;;;;;;5082071;28;20518;-72
2023/09/19 00:37:11;;;;;;;3.33;1.70;;;16.20;99.90;;;;;;5075590;28;21021;-73
2023/09/19 00:39:37;;;;;;;3.50;1.70;;;16.10;99.90;;;;;;5079293;28;20939;-71
2023/09/19 00:42:05;;;;;;;4.40;1.80;;;16.10;99.90;;;;;;5077443;28;20424;-72
2023/09/19 00:44:33;;;;;;;2.72;1.60;;;16.10;99.90;;;;;;5086815;28;20656;-71
2023/09/19 00:47:00;;;;;;;5.13;1.98;;;16.10;99.90;;;;;;5072755;28;20927;-71
2023/09/19 00:49:28;;;;;;;4.38;2.10;;;16.00;99.90;;;;;;5079599;28;20426;-71
2023/09/19 00:51:56;;;;;;;5.50;2.00;;;16.00;99.90;;;;;;5077275;28;20519;-72
2023/09/19 00:54:23;;;;;;;5.78;2.20;;;16.00;99.90;;;;;;5075702;28;20929;-72
2023/09/19 00:56:50;;;;;;;5.53;1.80;;;16.00;99.90;;;;;;5083584;28;20433;-72
2023/09/19 00:59:17;;;;;;;4.63;1.70;;;16.00;99.90;;;;;;5091045;28;20403;-71
2023/09/19 01:01:45;;;;;;;5.72;1.90;;;16.00;99.90;;;;;;5096493;28;20418;-71
2023/09/19 01:04:12;;;;;;;4.10;2.00;;;16.00;99.90;;;;;;5093090;28;20425;-71
2023/09/19 01:06:41;;;;;;;4.85;2.42;;;16.00;99.90;;;;;;5070722;28;20929;-71
2023/09/19 01:09:08;;;;;;;5.10;1.80;;;16.10;99.90;;;;;;5072021;28;20430;-71
2023/09/19 01:11:39;;;;;;;3.33;1.70;;;16.10;99.90;;;;;;5071136;28;20443;-72
2023/09/19 01:14:15;;;;;;;4.37;2.00;;;16.10;99.90;;;;;;5077079;28;20431;-73
2023/09/19 01:16:50;;;;;;;3.70;1.60;;;16.10;99.90;;;;;;5078510;28;20721;-71
2023/09/19 01:19:45;;;;;;;3.90;1.60;;;16.20;99.90;;;;;;5074227;28;20435;-71
2023/09/19 01:22:21;;;;;;;4.55;2.00;;;16.20;99.90;;;;;;5068040;28;20427;-71
2023/09/19 01:25:08;;;;;;;5.33;2.00;;;16.20;99.90;;;;;;5062752;28;20431;-71
2023/09/19 01:27:59;;;;;;;6.78;2.00;;;16.20;99.90;;;;;;5072578;28;20443;-71
2023/09/19 01:30:30;;;;;;;6.57;2.10;;;16.20;99.90;;;;;;5076866;28;20440;-71
2023/09/19 01:32:57;;;;;;;3.00;1.70;;;16.10;99.90;;;;;;5076290;28;20435;-71
2023/09/19 01:35:24;;;;;;;3.85;1.85;;;16.10;99.90;;;;;;5074810;28;20435;-72
2023/09/19 01:37:51;;;;;;;3.70;1.73;;;16.10;99.90;;;;;;5073653;28;20916;-72
2023/09/19 01:40:20;;;;;;;3.17;1.40;;;16.10;99.90;;;;;;5070371;28;20434;-72
2023/09/19 01:42:55;;;;;;;5.25;2.10;;;16.10;99.90;;;;;;5069377;28;20917;-73
2023/09/19 01:45:34;;;;;;;5.00;2.15;;;16.10;99.90;;;;;;5068698;28;20495;-71
2023/09/19 01:48:14;;;;;;;7.90;2.58;;;16.10;99.90;;;;;;5068741;28;20441;-72
2023/09/19 01:50:45;;;;;;;3.93;1.90;;;16.10;99.90;;;;;;5079256;28;20781;-73
2023/09/19 01:53:20;;;;;;;4.72;1.92;;;16.10;99.90;;;;;;5071377;28;20439;-71
2023/09/19 01:55:50;;;;;;;5.43;2.08;;;16.00;99.90;;;;;;5065697;28;20430;-71
2023/09/19 01:58:22;;;;;;;3.78;2.00;;;16.10;99.90;;;;;;5074311;28;20498;-71
2023/09/19 02:00:52;;;;;;;6.93;2.20;;;16.00;99.90;;;;;;5068069;28;20436;-73
2023/09/19 02:03:22;;;;;;;5.03;2.10;;;16.00;99.90;;;;;;5058198;28;20434;-72
2023/09/19 02:05:51;;;;;;;4.15;2.03;;;16.00;99.90;;;;;;5058215;28;20842;-71
2023/09/19 02:08:19;;;;;;;4.85;2.00;;;16.00;99.70;;;;;;5058315;28;20439;-73
2023/09/19 02:10:48;;;;;;;5.93;2.00;;;16.00;99.60;;;;;;5058350;28;20706;-71
2023/09/19 02:13:16;;;;;;;4.50;2.20;;;16.00;99.20;;;;;;5057474;28;20444;-72
2023/09/19 02:15:44;;;;;;;5.78;2.03;;;16.00;99.00;;;;;;5055568;28;20431;-72
2023/09/19 02:18:12;;;;;;;4.95;2.38;;;16.00;98.60;;;;;;5043761;28;20423;-72
2023/09/19 02:20:39;;;;;;;4.78;2.30;;;16.00;98.90;;;;;;5058634;28;20437;-71
2023/09/19 02:23:06;;;;;;;7.45;2.30;;;15.90;99.20;;;;;;5053147;28;20817;-70
2023/09/19 02:25:33;;;;;;;6.43;1.90;;;15.90;99.50;;;;;;5060142;28;20658;-73
2023/09/19 02:28:01;;;;;;;4.05;1.75;;;15.90;99.50;;;;;;5059637;28;20419;-73
2023/09/19 02:30:27;;;;;;;6.30;2.40;;;15.90;99.70;;;;;;5053577;28;20536;-71
2023/09/19 02:32:54;;;;;;;6.50;2.50;;;15.90;99.00;;;;;;5056383;28;20429;-73
2023/09/19 02:35:22;;;;;;;8.20;2.28;;;15.90;99.00;;;;;;5051566;28;20440;-70
2023/09/19 02:37:50;;;;;;;6.53;2.15;;;15.90;98.90;;;;;;5044822;28;20506;-72
2023/09/19 02:40:19;;;;;;;5.75;2.30;;;15.80;99.10;;;;;;5050554;28;20520;-71
2023/09/19 02:42:49;;;;;;;4.75;2.10;;;15.80;99.40;;;;;;5062486;28;20427;-72
2023/09/19 02:45:18;;;;;;;5.50;2.15;;;15.70;99.40;;;;;;5059308;28;20779;-73
2023/09/19 02:47:45;;;;;;;6.70;2.20;;;15.70;99.60;;;;;;5064190;28;20503;-72
2023/09/19 02:50:13;;;;;;;8.07;2.67;;;15.70;99.90;;;;;;5058662;28;20984;-72
2023/09/19 02:52:44;;;;;;;4.80;2.63;;;15.70;99.90;;;;;;5051448;28;20515;-71
2023/09/19 02:55:11;;;;;;;5.28;2.00;;;15.70;99.80;;;;;;5051963;28;20429;-73
2023/09/19 02:57:40;;;;;;;5.07;2.08;;;15.70;99.80;;;;;;5060146;28;20480;-73
2023/09/19 03:00:10;;;;;;;5.65;2.10;;;15.60;99.60;;;;;;5048013;28;20989;-71
2023/09/19 03:02:37;;;;;;;6.18;1.90;;;15.60;99.70;;;;;;5060065;28;20794;-72
2023/09/19 03:05:05;;;;;;;6.32;2.38;;;15.60;99.60;;;;;;5072296;28;20453;-71
2023/09/19 03:07:32;;;;;;;5.75;2.00;;;15.60;99.50;;;;;;5077299;28;20494;-71
2023/09/19 03:10:00;;;;;;;6.20;2.90;;;15.50;99.60;;;;;;5068549;28;20426;-71
2023/09/19 03:12:27;;;;;;;9.33;3.00;;;15.50;99.80;;;;;;5077950;28;20863;-72
2023/09/19 03:14:55;;;;;;;5.53;2.17;;;15.50;99.90;;;;;;5079950;28;20465;-72
2023/09/19 03:17:22;;;;;;;7.13;2.43;;;15.50;99.90;;;;;;5077797;28;20636;-71
2023/09/19 03:19:48;;;;;;;7.57;2.50;;;15.40;99.90;;;;;;5071165;28;20706;-71
2023/09/19 03:22:16;;;;;;;5.70;1.93;;;15.40;99.90;;;;;;5063723;28;20529;-71
2023/09/19 03:24:43;;;;;;;5.60;1.90;;;15.40;99.90;;;;;;5095066;28;20430;-73
2023/09/19 03:27:15;;;;;;;4.60;2.20;;;15.40;99.90;;;;;;5089546;28;20429;-73
2023/09/19 03:29:42;;;;;;;5.55;2.40;;;15.30;99.90;;;;;;5100700;28;20502;-71
2023/09/19 03:32:10;;;;;;;6.50;1.90;;;15.30;99.90;;;;;;5070222;28;20616;-70
2023/09/19 03:34:38;;;;;;;5.47;2.00;;;15.30;99.90;;;;;;5067188;28;20519;-72
2023/09/19 03:37:06;;;;;;;5.28;2.10;;;15.30;99.90;;;;;;5069601;28;20921;-71
2023/09/19 03:39:33;;;;;;;4.83;1.97;;;15.30;99.90;;;;;;5066532;28;20443;-73
2023/09/19 03:42:00;;;;;;;6.40;2.50;;;15.30;99.90;;;;;;5081083;28;20492;-72
2023/09/19 03:44:28;;;;;;;5.03;2.07;;;15.30;99.90;;;;;;5083568;28;20433;-72
2023/09/19 03:46:56;;;;;;;6.28;2.30;;;15.20;99.90;;;;;;5082330;28;20806;-71
2023/09/19 03:49:23;;;;;;;4.20;2.00;;;15.20;99.90;;;;;;5070236;28;20431;-71
2023/09/19 03:51:49;;;;;;;5.25;2.38;;;15.20;99.90;;;;;;5082696;28;20422;-71
2023/09/19 03:54:16;;;;;;;5.45;2.50;;;15.20;99.90;;;;;;5066650;28;20428;-73
2023/09/19 03:56:44;;;;;;;6.85;2.40;;;15.20;99.90;;;;;;5073225;28;20461;-72
2023/09/19 03:59:10;;;;;;;6.97;2.45;;;15.20;99.90;;;;;;5072065;28;20445;-71
2023/09/19 04:01:41;;;;;;;5.18;2.22;;;15.10;99.90;;;;;;5081709;28;20440;-71
2023/09/19 04:04:08;;;;;;;7.00;2.40;;;15.20;99.90;;;;;;5083691;28;20795;-72
2023/09/19 04:06:35;;;;;;;5.45;2.10;;;15.20;99.90;;;;;;5078590;28;20418;-72
2023/09/19 04:09:03;;;;;;;4.63;2.03;;;15.10;99.90;;;;;;5073041;28;20848;-71
2023/09/19 04:11:30;;;;;;;5.53;1.90;;;15.10;99.90;;;;;;5085198;28;20410;-72
2023/09/19 04:13:56;;;;;;;6.68;2.00;;;15.10;99.90;;;;;;5071107;28;20435;-71
2023/09/19 04:16:23;;;;;;;6.03;2.00;;;15.10;99.90;;;;;;5075877;28;20429;-72
2023/09/19 04:18:51;;;;;;;7.32;2.70;;;15.10;99.90;;;;;;5070879;28;20441;-72
2023/09/19 04:21:19;;;;;;;7.00;1.95;;;15.00;99.90;;;;;;5076780;28;20520;-72
2023/09/19 04:23:46;;;;;;;5.67;2.00;;;15.00;99.90;;;;;;5076958;28;20985;-72
2023/09/19 04:26:13;;;;;;;6.07;2.28;;;15.00;99.90;;;;;;5066325;28;20432;-72
2023/09/19 04:28:40;;;;;;;4.70;2.03;;;15.00;99.90;;;;;;5070589;28;20412;-71
2023/09/19 04:31:08;;;;;;;7.38;2.50;;;15.00;99.90;;;;;;5076344;28;20424;-71
2023/09/19 04:33:35;;;;;;;5.13;1.90;;;15.00;99.90;;;;;;5071551;28;20616;-72
2023/09/19 04:36:05;;;;;;;3.63;2.20;;;15.00;99.90;;;;;;5067814;28;21056;-71
2023/09/19 04:38:32;;;;;;;6.03;2.30;;;15.00;99.90;;;;;;5071316;28;20955;-73
2023/09/19 04:40:59;;;;;;;6.57;2.20;;;15.00;99.90;;;;;;5067591;28;20920;-72
2023/09/19 04:43:26;;;;;;;6.50;2.53;;;14.90;99.40;;;;;;5078514;28;20411;-72
2023/09/19 04:45:55;;;;;;;5.88;2.22;;;14.90;99.20;;;;;;5060721;28;20446;-71
2023/09/19 04:48:23;;;;;;;8.63;2.20;;;14.90;98.00;;;;;;5068957;28;20428;-72
2023/09/19 04:50:50;;;;;;;4.88;2.00;;;15.00;97.80;;;;;;5070798;28;20896;-71
2023/09/19 04:53:20;;;;;;;5.20;2.55;;;14.90;97.80;;;;;;5077358;28;20415;-73
2023/09/19 04:55:50;;;;;;;8.20;2.42;;;14.90;97.90;;;;;;5074426;28;20541;-71
2023/09/19 04:58:17;;;;;;;3.90;2.00;;;14.90;97.90;;;;;;5075179;28;20415;-72
2023/09/19 05:00:44;;;;;;;6.55;2.70;;;14.90;96.80;;;;;;5074871;28;20426;-71
2023/09/19 05:03:11;;;;;;;5.63;2.00;;;14.90;96.60;;;;;;5083641;28;20431;-71
2023/09/19 05:05:38;;;;;;;7.35;2.50;;;14.90;96.50;;;;;;5077293;28;20435;-72
2023/09/19 05:08:06;;;;;;;6.53;2.10;;;14.90;96.70;;;;;;5092635;28;20428;-70
2023/09/19 05:10:34;;;;;;;5.80;2.28;;;14.90;96.40;;;;;;5071853;28;20492;-67
2023/09/19 05:13:02;;;;;;;6.20;2.20;;;14.90;96.80;;;;;;5080981;28;20463;-69
2023/09/19 05:15:29;;;;;;;6.05;2.05;;;14.90;96.20;;;;;;5078215;28;20511;-69
2023/09/19 05:17:55;;;;;;;7.57;2.07;;;15.00;96.30;;;;;;5078543;28;20795;-70
2023/09/19 05:20:29;;;;;;;5.67;2.60;;;14.90;96.40;;;;;;5065417;28;20511;-70
2023/09/19 05:23:02;;;;;;;7.50;2.30;;;14.90;96.40;;;;;;5078089;28;20687;-72
2023/09/19 05:25:29;;;;;;;6.90;3.00;;;14.90;96.40;;;;;;5071422;28;20435;-70
2023/09/19 05:27:58;;;;;;;8.80;2.45;;;14.90;96.40;;;;;;5068479;28;20431;-71
2023/09/19 05:30:29;;;;;;;9.30;2.43;;;14.90;96.60;;;;;;5073157;28;20885;-71
2023/09/19 05:32:55;;;;;;;6.25;2.50;;;14.90;96.80;;;;;;5071752;28;20901;-70
2023/09/19 05:35:23;;;;;;;7.10;2.40;;;14.80;96.50;;;;;;5078690;28;20427;-70
2023/09/19 05:37:52;;;;;;;6.72;2.40;;;14.90;96.00;;;;;;5063489;28;20434;-71
2023/09/19 05:40:19;;;;;;;5.93;2.50;;;14.90;95.90;;;;;;5080271;28;20435;-68
2023/09/19 05:42:47;;;;;;;7.05;3.00;;;14.90;95.40;;;;;;5099357;28;20440;-69
2023/09/19 05:45:18;;;;;;;8.13;2.47;;;14.90;95.60;;;;;;5076933;28;20415;-71
2023/09/19 05:47:46;;;;;;;5.63;2.40;;;14.90;95.80;;;;;;5084910;28;20422;-70
2023/09/19 05:50:14;;;;;;;5.72;2.30;;;14.90;95.30;;;;;;5078770;28;20471;-69
2023/09/19 05:52:43;;;;;;;5.90;2.17;;;15.00;95.50;;;;;;5080850;28;20406;-70
2023/09/19 05:55:11;;;;;;;5.95;2.55;;;14.90;96.10;;;;;;5066807;28;20513;-70
2023/09/19 05:57:38;;;;;;;6.80;2.70;;;14.90;95.40;;;;;;5082980;28;20433;-72
2023/09/19 06:00:08;;;;;;;7.90;2.20;;;14.90;96.00;;;;;;5085758;28;20426;-70
2023/09/19 06:02:37;;;;;;;7.70;2.42;;;14.90;95.80;;;;;;5077984;28;20948;-70
2023/09/19 06:05:06;;;;;;;6.05;2.40;;;15.00;95.70;;;;;;5077479;28;20571;-70
2023/09/19 06:07:36;;;;;;;8.85;2.45;;;15.00;95.90;;;;;;5076434;28;20513;-68
2023/09/19 06:10:05;;;;;;;6.27;2.57;;;15.00;95.70;;;;;;5077563;28;20916;-72
2023/09/19 06:12:32;;;;;;;7.65;2.38;;;15.00;95.70;;;;;;5079725;28;20447;-71
2023/09/19 06:15:00;;;;;;;5.93;2.78;;;15.00;95.70;;;;;;5079404;28;20924;-70
2023/09/19 06:17:27;;;;;;;4.43;2.45;;;15.00;95.60;;;;;;5088278;28;20453;-68
2023/09/19 06:19:55;;;;;;;6.50;2.63;;;15.00;96.30;;;;;;5092125;28;20419;-68
2023/09/19 06:22:23;;;;;;;7.57;2.50;;;15.00;95.90;;;;;;5116216;22;20436;-72
2023/09/19 06:24:50;;;;;;;6.22;2.97;;;15.00;96.10;;;;;;5019613;28;20519;-72
2023/09/19 06:27:17;;;;;;;6.55;2.50;;;15.00;96.50;;;;;;5027206;28;20800;-72
2023/09/19 06:29:44;;;;;;;5.15;2.47;;;15.00;95.70;;;;;;5020060;28;20491;-72
2023/09/19 06:32:11;;;;;;;6.00;2.50;;;15.00;96.40;;;;;;5023257;28;20450;-72
2023/09/19 06:34:38;;;;;;;8.07;2.30;;;15.00;96.70;;;;;;5019412;28;20493;-75
2023/09/19 06:37:06;;;;;;;7.88;2.50;;;15.10;96.00;;;;;;5010062;28;20793;-72
2023/09/19 06:39:33;;;;;;;7.90;2.53;;;15.10;96.10;;;;;;5008629;28;20489;-74
2023/09/19 06:42:01;;;;;;;6.20;2.40;;;15.10;95.90;;;;;;5013171;28;20490;-74
2023/09/19 06:44:29;;;;;;;7.87;3.10;;;15.20;95.90;;;;;;5014784;28;20445;-74
2023/09/19 06:46:56;;;;;;;5.18;2.20;;;15.20;96.80;;;;;;5013092;28;20430;-75
2023/09/19 06:49:23;;;;;;;7.35;2.50;;;15.20;96.30;;;;;;5011484;28;20515;-75
2023/09/19 06:51:49;;;;;;;7.40;2.85;;;15.30;95.40;;;;;;5012610;28;20434;-75
2023/09/19 06:54:17;;;;;;;8.98;2.83;;;15.40;95.20;;;;;;5016288;28;20431;-75
2023/09/19 06:56:44;;;;;;;5.90;2.50;;;15.40;95.10;;;;;;5012833;28;20976;-74
2023/09/19 06:59:14;;;;;;;6.30;2.53;;;15.50;95.20;;;;;;5008335;28;20916;-74
2023/09/19 07:01:41;;;;;;;7.90;2.70;;;15.50;94.90;;;;;;5017345;28;20834;-75
2023/09/19 07:04:08;;;;;;;6.10;2.60;;;15.50;94.60;;;;;;5012133;28;20770;-74
2023/09/19 07:06:35;;;;;;;10.63;2.88;;;15.60;95.00;;;;;;5017169;28;20520;-74
2023/09/19 07:09:02;;;;;;;7.68;2.28;;;15.60;94.10;;;;;;5018062;28;20530;-74
2023/09/19 07:11:31;;;;;;;6.60;2.42;;;15.70;94.50;;;;;;5015519;28;20435;-74
2023/09/19 07:13:58;;;;;;;7.00;2.22;;;15.70;94.50;;;;;;5017037;28;20446;-74
2023/09/19 07:16:29;;;;;;;9.75;2.75;;;15.80;94.70;;;;;;5017645;28;20435;-74
2023/09/19 07:18:56;;;;;;;7.80;2.67;;;15.80;94.20;;;;;;5011194;28;20819;-74
2023/09/19 07:21:23;;;;;;;8.30;2.40;;;15.90;94.30;;;;;;5018202;28;20798;-74
2023/09/19 07:23:49;;;;;;;6.97;2.40;;;15.90;94.20;;;;;;5011732;28;20826;-74
2023/09/19 07:26:16;;;;;;;4.30;2.20;;;16.00;94.40;;;;;;5015324;28;20444;-75
2023/09/19 07:28:44;;;;;;;5.72;2.30;;;16.00;93.30;;;;;;5015296;28;20438;-74
2023/09/19 07:31:12;;;;;;;5.28;2.15;;;16.00;92.90;;;;;;5014747;28;20430;-75
2023/09/19 07:33:40;;;;;;;8.60;2.60;;;16.00;93.10;;;;;;5017227;28;20447;-74
2023/09/19 07:36:10;;;;;;;5.20;2.20;;;16.10;93.10;;;;;;5010225;28;20463;-72
2023/09/19 07:38:37;;;;;;;5.88;2.30;;;16.10;93.70;;;;;;5011296;28;20517;-74
2023/09/19 07:41:05;;;;;;;6.07;2.03;;;16.20;92.40;;;;;;5014000;28;20954;-73
2023/09/19 07:43:33;;;;;;;6.35;2.20;;;16.20;92.00;;;;;;5007635;28;20425;-73
2023/09/19 07:46:06;;;;;;;7.28;2.42;;;16.20;92.30;;;;;;5013567;28;20444;-73
2023/09/19 07:48:34;;;;;;;6.75;2.50;;;16.30;92.70;;;;;;5014435;28;20530;-75
2023/09/19 07:51:03;;;;;;;7.30;2.20;;;16.40;92.50;;;;;;5021184;28;20449;-74
2023/09/19 07:53:34;;;;;;;7.65;2.20;;;16.50;92.30;;;;;;5023460;28;20498;-75
2023/09/19 07:56:04;;;;;;;5.32;2.20;;;16.60;91.70;;;;;;5021536;28;20949;-74
2023/09/19 07:58:33;;;;;;;6.78;2.30;;;16.70;90.90;;;;;;5022677;28;20545;-74
2023/09/19 08:01:05;;;;;;;5.55;2.10;;;16.80;91.00;;;;;;5019777;28;20537;-74
2023/09/19 08:03:31;;;;;;;4.05;2.00;;;17.00;89.60;;;;;;5014273;28;20431;-73
2023/09/19 08:05:59;;;;;;;5.47;2.35;;;17.20;90.30;;;;;;5010857;28;20438;-75
2023/09/19 08:08:26;;;;;;;5.97;2.20;;;17.30;88.90;;;;;;5017232;28;20445;-73
2023/09/19 08:10:56;;;;;;;4.93;2.10;;;17.30;88.40;;;;;;5018516;28;20433;-73
2023/09/19 08:13:23;;;;;;;6.85;2.55;;;17.40;86.30;;;;;;5019244;28;20927;-73
2023/09/19 08:15:50;;;;;;;5.10;1.80;;;17.40;87.60;;;;;;5016738;28;20525;-72
2023/09/19 08:18:18;;;;;;;5.53;2.40;;;17.50;87.70;;;;;;5015495;28;20549;-74
2023/09/19 08:20:50;;;;;;;6.32;2.35;;;17.70;87.50;;;;;;5017989;28;20468;-74
2023/09/19 08:23:18;;;;;;;5.93;2.00;;;17.80;85.00;;;;;;5014855;28;20439;-74
2023/09/19 08:25:45;;;;;;;5.57;2.10;;;17.90;85.20;;;;;;5020038;28;20798;-74
2023/09/19 08:28:17;;;;;;;8.43;2.30;;;18.00;83.80;;;;;;5012213;28;20454;-74
2023/09/19 08:30:44;;;;;;;5.60;1.80;;;18.00;84.70;;;;;;5021147;28;20994;-74
2023/09/19 08:33:10;;;;;;;6.07;2.40;;;18.10;83.70;;;;;;5021391;28;20443;-74
2023/09/19 08:35:39;;;;;;;6.78;1.90;;;18.20;82.40;;;;;;5020543;28;20446;-73
2023/09/19 08:38:06;;;;;;;5.68;2.30;;;18.20;81.00;;;;;;5021918;28;20606;-73
2023/09/19 08:40:34;;;;;;;3.97;1.80;;;18.10;82.20;;;;;;5026515;28;20422;-71
2023/09/19 08:43:01;;;;;;;4.43;2.00;;;18.20;80.40;;;;;;5023118;28;20515;-73
2023/09/19 08:45:28;;;;;;;7.68;2.63;;;18.20;81.00;;;;;;5025146;28;20942;-71
2023/09/19 08:48:03;;;;;;;4.80;1.80;;;18.30;80.50;;;;;;5025009;28;20450;-71
2023/09/19 08:50:31;;;;;;;4.32;2.10;;;18.40;80.30;;;;;;5021127;28;20907;-72
2023/09/19 08:53:02;;;;;;;4.80;2.10;;;18.40;80.30;;;;;;5022617;28;20508;-72
2023/09/19 08:55:30;;;;;;;6.07;2.10;;;18.50;77.00;;;;;;5018666;28;20435;-72
2023/09/19 08:58:02;;;;;;;4.45;2.10;;;18.50;77.30;;;;;;5015759;28;20529;-72
2023/09/19 09:00:31;;;;;;;6.65;2.30;;;18.40;77.40;;;;;;5018145;28;20447;-71
2023/09/19 09:02:59;;;;;;;5.82;1.90;;;18.30;76.80;;;;;;5018521;28;20439;-71
2023/09/19 09:05:26;;;;;;;4.75;2.30;;;18.30;77.10;;;;;;5023820;28;20461;-71
2023/09/19 09:07:56;;;;;;;5.53;2.55;;;18.40;76.40;;;;;;5020854;28;20901;-71
2023/09/19 09:10:24;;;;;;;5.03;1.73;;;18.50;75.10;;;;;;5023526;28;20452;-72
2023/09/19 09:12:53;;;;;;;6.90;1.90;;;18.50;75.50;;;;;;5023769;28;20437;-71
2023/09/19 09:15:23;;;;;;;5.40;2.00;;;18.40;76.10;;;;;;5023033;28;20773;-71
2023/09/19 09:17:50;;;;;;;6.88;2.40;;;18.50;76.20;;;;;;5022206;28;20453;-71
2023/09/19 09:20:17;;;;;;;4.25;2.20;;;18.60;76.60;;;;;;5026021;28;20654;-72
2023/09/19 09:22:53;;;;;;;4.80;2.05;;;18.80;74.90;;;;;;5024110;28;20517;-72
2023/09/19 09:25:23;;;;;;;5.40;1.85;;;18.90;73.20;;;;;;5025483;28;20458;-72
2023/09/19 09:28:00;;;;;;;5.75;2.30;;;19.00;72.50;;;;;;5022830;28;20439;-71
2023/09/19 09:30:34;;;;;;;5.37;2.10;;;19.00;71.60;;;;;;5024257;28;20414;-74
2023/09/19 09:33:11;;;;;;;4.43;1.98;;;18.90;71.70;;;;;;5022245;28;20478;-70
2023/09/19 09:35:47;;;;;;;5.28;2.10;;;19.00;70.90;;;;;;5025582;28;20827;-72
2023/09/19 09:38:18;;;;;;;5.57;1.92;;;19.10;70.60;;;;;;5026061;28;20423;-71
2023/09/19 09:40:49;;;;;;;5.20;1.85;;;19.30;70.00;;;;;;5025383;28;20518;-74
2023/09/19 09:43:35;;;;;;;4.28;1.90;;;19.50;67.10;;;;;;5026842;28;20835;-71
2023/09/19 09:49:25;;;;;;;3.72;1.90;;;19.80;65.10;;;;;;4988738;28;20522;-71
2023/09/19 09:52:05;;;;;;;6.10;2.30;;;19.60;64.60;;;;;;5015271;28;20869;-72
2023/09/19 09:54:36;;;;;;;4.22;1.90;;;19.50;66.30;;;;;;5016195;28;20517;-72
2023/09/19 09:57:13;;;;;;;5.43;2.03;;;19.60;67.50;;;;;;5018585;28;20549;-72
2023/09/19 09:59:55;;;;;;;5.00;1.90;;;19.80;66.20;;;;;;5019460;28;20463;-72
2023/09/19 10:02:28;;;;;;;4.82;1.80;;;19.90;64.70;;;;;;5018413;28;20430;-71
2023/09/19 10:05:08;;;;;;;3.53;1.90;;;19.70;65.50;;;;;;5021989;28;20517;-72
2023/09/19 10:07:38;;;;;;;4.07;1.88;;;19.70;65.30;;;;;;5016580;28;20941;-71
2023/09/19 10:10:15;;;;;;;4.03;1.85;;;19.90;65.40;;;;;;5019803;28;20425;-72
2023/09/19 10:12:47;;;;;;;5.50;1.90;;;20.00;63.90;;;;;;5017809;28;21355;-72
2023/09/19 10:15:17;;;;;;;3.35;1.60;;;20.20;64.00;;;;;;5018182;28;20461;-72
2023/09/19 10:17:46;;;;;;;4.32;1.90;;;20.40;63.30;;;;;;5022132;28;20434;-73
2023/09/19 10:20:33;;;;;;;4.63;1.65;;;20.50;63.30;;;;;;5021488;28;20490;-72
2023/09/19 10:23:01;;;;;;;4.10;1.67;;;20.60;63.40;;;;;;5020652;28;20502;-72
2023/09/19 10:25:30;;;;;;;3.40;1.63;;;20.50;63.10;;;;;;5016324;28;20450;-71
2023/09/19 10:27:58;;;;;;;4.80;1.60;;;20.50;61.90;;;;;;5016076;28;20429;-74
2023/09/19 10:30:30;;;;;;;5.10;1.70;;;20.50;63.70;;;;;;5011757;28;20435;-71
2023/09/19 10:33:00;;;;;;;2.83;1.50;;;20.60;64.30;;;;;;5015138;28;20445;-74
2023/09/19 10:35:28;;;;;;;4.43;1.70;;;20.60;63.20;;;;;;5017428;28;20781;-73
2023/09/19 10:37:57;;;;;;;6.00;1.83;;;20.60;61.20;;;;;;5017572;28;20496;-73
2023/09/19 10:40:30;;;;;;;5.45;1.55;;;20.60;60.90;;;;;;5012227;28;20438;-73
2023/09/19 10:43:02;;;;;;;4.57;1.60;;;20.50;61.60;;;;;;5018365;28;21004;-72
2023/09/19 10:45:32;;;;;;;5.15;1.80;;;20.40;61.70;;;;;;5014612;28;20446;-73
2023/09/19 10:47:59;;;;;;;4.05;1.80;;;20.30;63.50;;;;;;5016654;28;20456;-72
2023/09/19 10:50:28;;;;;;;2.80;1.50;;;20.30;64.70;;;;;;5021121;28;20435;-73
2023/09/19 10:53:00;;;;;;;4.88;2.00;;;20.50;62.00;;;;;;5018998;28;20755;-73
2023/09/19 10:55:30;;;;;;;3.05;1.55;;;20.70;61.00;;;;;;5020524;28;20916;-73
2023/09/19 10:57:57;;;;;;;3.67;1.60;;;20.70;60.70;;;;;;5017187;28;20562;-73
2023/09/19 11:00:27;;;;;;;3.35;1.55;;;20.60;62.60;;;;;;5017487;28;20495;-73
2023/09/19 11:03:30;;;;;;;3.40;1.80;;;20.70;61.80;;;;;;5018998;28;20518;-74
2023/09/19 11:06:10;;;;;;;4.40;1.50;;;20.90;61.00;;;;;;4976506;28;20462;-74
2023/09/19 11:08:57;;;;;;;3.75;1.60;;;21.10;60.00;;;;;;5022786;28;20435;-73
2023/09/19 11:11:46;;;;;;;3.87;1.60;;;21.30;59.70;;;;;;5019565;28;20438;-73
2023/09/19 11:14:17;;;;;;;3.80;1.80;;;21.30;57.90;;;;;;5021023;28;20423;-74
2023/09/19 11:17:19;;;;;;;3.08;1.80;;;21.20;57.40;;;;;;5019653;28;20908;-73
2023/09/19 11:20:25;;;;;;;6.15;2.10;;;21.20;57.80;;;;;;5012920;28;20528;-74
2023/09/19 11:23:24;;;;;;;4.40;2.03;;;21.30;57.00;;;;;;5013200;28;20465;-73
2023/09/19 11:25:53;;;;;;;3.80;2.10;;;21.20;54.20;;;;;;5007521;28;20479;-73
2023/09/19 11:28:38;;;;;;;3.50;1.85;;;21.10;55.50;;;;;;5013880;28;20507;-74
2023/09/19 11:31:53;;;;;;;4.20;1.70;;;21.00;56.70;;;;;;5012249;28;20902;-73
2023/09/19 11:34:38;;;;;;;4.03;1.80;;;21.20;54.40;;;;;;5018626;28;20462;-74
2023/09/19 11:38:10;;;;;;;2.50;1.67;;;21.50;55.30;;;;;;5013799;28;20424;-73
2023/09/19 11:40:37;;;;;;;3.75;1.67;;;22.10;49.10;;;;;;5017335;28;20536;-74
2023/09/19 11:43:35;;;;;;;5.40;2.00;;;22.20;47.60;;;;;;5015514;28;20588;-73
2023/09/19 11:46:06;;;;;;;3.95;1.70;;;21.90;48.30;;;;;;5007594;28;20548;-74
2023/09/19 11:48:34;;;;;;;4.45;2.00;;;21.50;49.80;;;;;;5014722;28;20435;-73
2023/09/19 11:51:07;;;;;;;3.58;1.70;;;21.40;50.50;;;;;;5021741;28;20478;-74
2023/09/19 11:53:36;;;;;;;4.45;1.92;;;21.30;51.00;;;;;;5017856;28;20435;-73
2023/09/19 11:56:06;;;;;;;4.32;1.90;;;21.40;51.30;;;;;;5022349;28;20415;-73
2023/09/19 11:58:34;;;;;;;4.60;1.95;;;21.80;50.40;;;;;;5015598;28;20439;-73
2023/09/19 12:01:12;;;;;;;4.18;1.60;;;22.30;48.80;;;;;;5015510;28;21180;-74
2023/09/19 12:03:42;;;;;;;3.43;1.60;;;22.60;45.60;;;;;;5017914;28;20434;-74
2023/09/19 12:06:14;;;;;;;3.95;1.60;;;22.60;45.60;;;;;;5017045;28;20454;-72
2023/09/19 12:08:43;;;;;;;3.03;1.50;;;22.50;44.70;;;;;;5021767;28;20529;-74
2023/09/19 12:11:16;;;;;;;3.80;1.80;;;22.60;44.70;;;;;;5013411;28;20528;-74
2023/09/19 12:13:45;;;;;;;3.83;1.33;;;22.50;44.00;;;;;;5022607;28;20436;-74
2023/09/19 12:16:16;;;;;;;4.50;1.50;;;22.50;44.70;;;;;;5015763;28;20448;-73
2023/09/19 12:18:44;;;;;;;3.50;1.58;;;22.40;44.60;;;;;;5015881;28;20588;-74
2023/09/19 12:21:27;;;;;;;4.70;1.95;;;22.50;44.00;;;;;;5020010;28;20959;-74
2023/09/19 12:24:05;;;;;;;6.55;1.90;;;22.50;43.30;;;;;;5010607;28;20439;-74
2023/09/19 12:26:40;;;;;;;3.40;1.50;;;22.40;44.30;;;;;;5007634;28;20488;-75
2023/09/19 12:29:13;;;;;;;2.95;1.73;;;22.30;43.40;;;;;;5014531;28;20970;-75
2023/09/19 12:31:50;;;;;;;2.88;1.40;;;22.30;43.00;;;;;;5012989;28;20491;-76
2023/09/19 12:34:19;;;;;;;3.40;1.65;;;22.30;43.20;;;;;;5023323;28;20438;-75
2023/09/19 12:36:46;;;;;;;4.13;1.65;;;22.40;43.50;;;;;;5017248;28;20438;-75
2023/09/19 12:39:24;;;;;;;3.70;1.67;;;22.40;43.20;;;;;;5023010;28;20450;-74
2023/09/19 12:41:51;;;;;;;5.30;1.70;;;22.50;43.70;;;;;;5022363;28;20527;-76
2023/09/19 12:44:18;;;;;;;2.70;1.70;;;22.60;43.60;;;;;;5014969;28;20528;-76
2023/09/19 12:46:45;;;;;;;3.00;1.60;;;22.70;42.50;;;;;;5017154;28;20435;-75
2023/09/19 12:49:18;;;;;;;2.50;1.40;;;22.70;42.30;;;;;;5020299;28;20493;-76
2023/09/19 12:51:45;;;;;;;4.25;1.40;;;22.80;41.70;;;;;;5014565;28;20468;-75
2023/09/19 12:54:11;;;;;;;3.25;1.70;;;22.80;41.80;;;;;;5014361;28;20427;-74
2023/09/19 12:56:44;;;;;;;3.50;1.50;;;22.70;42.40;;;;;;5019185;28;20427;-75
2023/09/19 12:59:13;;;;;;;3.42;1.50;;;22.70;42.20;;;;;;5023430;28;20435;-74
2023/09/19 13:01:44;;;;;;;3.30;1.10;;;22.80;42.70;;;;;;5025043;28;20880;-76
2023/09/19 13:04:14;;;;;;;3.63;1.63;;;22.80;42.60;;;;;;5016449;28;20506;-75
2023/09/19 13:06:44;;;;;;;2.78;1.20;;;22.90;43.10;;;;;;5016307;28;20472;-75